sensor_id;sensor_type;location;lat;lon;timestamp;temperature;humidity
16867;DHT22;8550;52.596;13.320;2023-05-10T00:01:13;12.60;90.20
16867;DHT22;8550;52.596;13.320;2023-05-10T00:06:15;12.50;90.70
16867;DHT22;8550;52.596;13.320;2023-05-10T00:11:17;12.40;91.50
16867;DHT22;8550;52.596;13.320;2023-05-10T00:16:20;12.50;91.50
16867;DHT22;8550;52.596;13.320;2023-05-10T00:21:22;12.50;91.90
16867;DHT22;8550;52.596;13.320;2023-05-10T00:26:24;12.30;93.30
16867;DHT22;8550;52.596;13.320;2023-05-10T00:31:28;12.10;93.60
16867;DHT22;8550;52.596;13.320;2023-05-10T00:36:30;12.10;93.90
16867;DHT22;8550;52.596;13.320;2023-05-10T00:41:32;12.00;94.80
16867;DHT22;8550;52.596;13.320;2023-05-10T00:46:35;11.90;95.60
16867;DHT22;8550;52.596;13.320;2023-05-10T00:51:37;11.80;96.10
16867;DHT22;8550;52.596;13.320;2023-05-10T00:56:39;11.70;96.80
16867;DHT22;8550;52.596;13.320;2023-05-10T01:01:43;11.60;97.20
16867;DHT22;8550;52.596;13.320;2023-05-10T01:06:45;11.50;97.50
16867;DHT22;8550;52.596;13.320;2023-05-10T01:11:48;11.40;98.40
16867;DHT22;8550;52.596;13.320;2023-05-10T01:16:52;11.40;99.00
16867;DHT22;8550;52.596;13.320;2023-05-10T01:22:04;11.40;99.40
16867;DHT22;8550;52.596;13.320;2023-05-10T01:27:20;11.30;99.90
16867;DHT22;8550;52.596;13.320;2023-05-10T01:32:31;11.40;99.90
16867;DHT22;8550;52.596;13.320;2023-05-10T01:37:41;11.30;99.90
16867;DHT22;8550;52.596;13.320;2023-05-10T01:42:49;11.20;99.90
16867;DHT22;8550;52.596;13.320;2023-05-10T01:48:02;11.20;99.90
16867;DHT22;8550;52.596;13.320;2023-05-10T01:53:08;11.20;99.90
16867;DHT22;8550;52.596;13.320;2023-05-10T01:58:15;11.10;99.90
16867;DHT22;8550;52.596;13.320;2023-05-10T02:03:22;11.10;99.90
16867;DHT22;8550;52.596;13.320;2023-05-10T02:08:25;11.10;99.90
16867;DHT22;8550;52.596;13.320;2023-05-10T02:13:29;11.00;99.90
16867;DHT22;8550;52.596;13.320;2023-05-10T02:18:35;11.00;99.90
16867;DHT22;8550;52.596;13.320;2023-05-10T02:23:38;11.10;99.90
16867;DHT22;8550;52.596;13.320;2023-05-10T02:28:40;11.10;99.90
16867;DHT22;8550;52.596;13.320;2023-05-10T02:33:46;10.90;99.90
16867;DHT22;8550;52.596;13.320;2023-05-10T02:38:50;10.80;99.90
16867;DHT22;8550;52.596;13.320;2023-05-10T02:43:56;10.80;99.90
16867;DHT22;8550;52.596;13.320;2023-05-10T02:49:00;10.80;99.90
16867;DHT22;8550;52.596;13.320;2023-05-10T02:54:07;10.80;99.90
16867;DHT22;8550;52.596;13.320;2023-05-10T02:59:11;10.60;99.90
16867;DHT22;8550;52.596;13.320;2023-05-10T03:04:14;10.60;99.90
16867;DHT22;8550;52.596;13.320;2023-05-10T03:09:16;10.60;99.90
16867;DHT22;8550;52.596;13.320;2023-05-10T03:14:25;10.60;99.90
16867;DHT22;8550;52.596;13.320;2023-05-10T03:19:35;10.60;99.90
16867;DHT22;8550;52.596;13.320;2023-05-10T03:24:39;10.60;99.90
16867;DHT22;8550;52.596;13.320;2023-05-10T03:29:44;10.50;99.90
16867;DHT22;8550;52.596;13.320;2023-05-10T03:34:48;10.50;99.90
16867;DHT22;8550;52.596;13.320;2023-05-10T03:39:50;10.50;99.90
16867;DHT22;8550;52.596;13.320;2023-05-10T03:44:52;10.50;99.90
16867;DHT22;8550;52.596;13.320;2023-05-10T03:49:55;10.50;99.90
16867;DHT22;8550;52.596;13.320;2023-05-10T03:54:58;10.60;99.90
16867;DHT22;8550;52.596;13.320;2023-05-10T04:00:03;10.60;99.90
16867;DHT22;8550;52.596;13.320;2023-05-10T04:05:07;10.70;99.90
16867;DHT22;8550;52.596;13.320;2023-05-10T04:10:09;10.70;99.90
16867;DHT22;8550;52.596;13.320;2023-05-10T04:15:11;10.80;99.90
16867;DHT22;8550;52.596;13.320;2023-05-10T04:20:15;10.90;99.90
16867;DHT22;8550;52.596;13.320;2023-05-10T04:25:17;11.10;99.90
16867;DHT22;8550;52.596;13.320;2023-05-10T04:30:19;11.30;99.90
16867;DHT22;8550;52.596;13.320;2023-05-10T04:35:22;11.30;99.90
16867;DHT22;8550;52.596;13.320;2023-05-10T04:40:26;11.40;99.90
16867;DHT22;8550;52.596;13.320;2023-05-10T04:45:27;11.50;99.90
16867;DHT22;8550;52.596;13.320;2023-05-10T04:50:31;11.70;99.90
16867;DHT22;8550;52.596;13.320;2023-05-10T04:55:33;11.80;99.90
16867;DHT22;8550;52.596;13.320;2023-05-10T05:00:35;11.90;99.90
16867;DHT22;8550;52.596;13.320;2023-05-10T05:05:43;12.00;99.90
16867;DHT22;8550;52.596;13.320;2023-05-10T05:10:59;12.10;99.90
16867;DHT22;8550;52.596;13.320;2023-05-10T05:16:01;12.20;99.90
16867;DHT22;8550;52.596;13.320;2023-05-10T05:21:13;12.30;99.90
16867;DHT22;8550;52.596;13.320;2023-05-10T05:26:15;12.50;99.60
16867;DHT22;8550;52.596;13.320;2023-05-10T05:31:17;12.70;99.50
16867;DHT22;8550;52.596;13.320;2023-05-10T05:36:21;12.90;98.90
16867;DHT22;8550;52.596;13.320;2023-05-10T05:41:23;13.00;98.80
16867;DHT22;8550;52.596;13.320;2023-05-10T05:46:26;13.10;98.80
16867;DHT22;8550;52.596;13.320;2023-05-10T05:51:29;13.30;98.10
16867;DHT22;8550;52.596;13.320;2023-05-10T05:56:32;13.50;97.90
16867;DHT22;8550;52.596;13.320;2023-05-10T06:01:34;13.60;97.70
16867;DHT22;8550;52.596;13.320;2023-05-10T06:06:38;13.80;96.70
16867;DHT22;8550;52.596;13.320;2023-05-10T06:11:40;13.90;96.80
16867;DHT22;8550;52.596;13.320;2023-05-10T06:16:42;14.10;96.60
16867;DHT22;8550;52.596;13.320;2023-05-10T06:21:46;14.20;96.20
16867;DHT22;8550;52.596;13.320;2023-05-10T06:26:48;14.50;96.40
16867;DHT22;8550;52.596;13.320;2023-05-10T06:31:50;14.60;95.80
16867;DHT22;8550;52.596;13.320;2023-05-10T06:36:53;14.80;95.00
16867;DHT22;8550;52.596;13.320;2023-05-10T06:41:55;15.00;95.10
16867;DHT22;8550;52.596;13.320;2023-05-10T06:46:57;15.10;93.80
16867;DHT22;8550;52.596;13.320;2023-05-10T06:52:00;15.10;94.70
16867;DHT22;8550;52.596;13.320;2023-05-10T06:57:02;15.20;93.80
16867;DHT22;8550;52.596;13.320;2023-05-10T07:02:05;15.30;93.80
16867;DHT22;8550;52.596;13.320;2023-05-10T07:07:08;15.40;93.30
16867;DHT22;8550;52.596;13.320;2023-05-10T07:12:10;15.60;93.50
16867;DHT22;8550;52.596;13.320;2023-05-10T07:17:12;15.80;93.10
16867;DHT22;8550;52.596;13.320;2023-05-10T07:22:18;15.90;92.50
16867;DHT22;8550;52.596;13.320;2023-05-10T07:27:20;15.90;92.80
16867;DHT22;8550;52.596;13.320;2023-05-10T07:32:22;16.00;92.50
16867;DHT22;8550;52.596;13.320;2023-05-10T07:37:26;16.20;92.60
16867;DHT22;8550;52.596;13.320;2023-05-10T07:42:28;16.40;92.60
16867;DHT22;8550;52.596;13.320;2023-05-10T07:47:30;16.50;92.00
16867;DHT22;8550;52.596;13.320;2023-05-10T07:52:33;16.60;91.50
16867;DHT22;8550;52.596;13.320;2023-05-10T07:57:35;16.80;91.60
16867;DHT22;8550;52.596;13.320;2023-05-10T08:02:37;16.90;90.90
16867;DHT22;8550;52.596;13.320;2023-05-10T08:07:43;17.00;90.90
16867;DHT22;8550;52.596;13.320;2023-05-10T08:12:45;17.10;90.70
16867;DHT22;8550;52.596;13.320;2023-05-10T08:17:47;17.30;90.40
16867;DHT22;8550;52.596;13.320;2023-05-10T08:22:50;17.40;90.10
16867;DHT22;8550;52.596;13.320;2023-05-10T08:27:52;17.80;90.30
16867;DHT22;8550;52.596;13.320;2023-05-10T08:32:54;17.90;90.50
16867;DHT22;8550;52.596;13.320;2023-05-10T08:37:58;18.10;87.80
16867;DHT22;8550;52.596;13.320;2023-05-10T08:43:05;18.30;88.60
16867;DHT22;8550;52.596;13.320;2023-05-10T08:48:09;18.30;85.30
16867;DHT22;8550;52.596;13.320;2023-05-10T08:53:13;18.40;87.30
16867;DHT22;8550;52.596;13.320;2023-05-10T08:58:16;18.60;85.50
16867;DHT22;8550;52.596;13.320;2023-05-10T09:03:19;18.70;85.30
16867;DHT22;8550;52.596;13.320;2023-05-10T09:08:24;18.90;84.80
16867;DHT22;8550;52.596;13.320;2023-05-10T09:13:27;18.90;83.90
16867;DHT22;8550;52.596;13.320;2023-05-10T09:18:30;19.20;84.00
16867;DHT22;8550;52.596;13.320;2023-05-10T09:23:33;19.30;81.60
16867;DHT22;8550;52.596;13.320;2023-05-10T09:28:50;19.50;81.60
16867;DHT22;8550;52.596;13.320;2023-05-10T09:33:53;19.70;80.70
16867;DHT22;8550;52.596;13.320;2023-05-10T09:38:57;19.70;79.10
16867;DHT22;8550;52.596;13.320;2023-05-10T09:43:59;19.90;79.80
16867;DHT22;8550;52.596;13.320;2023-05-10T09:49:01;20.00;80.20
16867;DHT22;8550;52.596;13.320;2023-05-10T09:54:13;20.10;79.60
16867;DHT22;8550;52.596;13.320;2023-05-10T09:59:15;20.40;78.50
16867;DHT22;8550;52.596;13.320;2023-05-10T10:04:17;20.70;80.00
16867;DHT22;8550;52.596;13.320;2023-05-10T10:09:22;20.90;77.20
16867;DHT22;8550;52.596;13.320;2023-05-10T10:14:25;21.10;75.50
16867;DHT22;8550;52.596;13.320;2023-05-10T10:19:29;21.20;76.50
16867;DHT22;8550;52.596;13.320;2023-05-10T10:24:47;21.40;74.30
16867;DHT22;8550;52.596;13.320;2023-05-10T10:30:43;21.40;72.30
16867;DHT22;8550;52.596;13.320;2023-05-10T10:35:28;21.60;72.00
16867;DHT22;8550;52.596;13.320;2023-05-10T10:40:33;21.60;71.40
16867;DHT22;8550;52.596;13.320;2023-05-10T10:45:39;21.80;73.00
16867;DHT22;8550;52.596;13.320;2023-05-10T10:50:44;22.00;70.90
16867;DHT22;8550;52.596;13.320;2023-05-10T10:55:49;22.10;69.60
16867;DHT22;8550;52.596;13.320;2023-05-10T11:01:09;22.50;68.50
16867;DHT22;8550;52.596;13.320;2023-05-10T11:06:11;23.80;65.80
16867;DHT22;8550;52.596;13.320;2023-05-10T11:11:15;25.90;59.70
16867;DHT22;8550;52.596;13.320;2023-05-10T11:16:19;26.80;56.30
16867;DHT22;8550;52.596;13.320;2023-05-10T11:21:21;28.40;50.80
16867;DHT22;8550;52.596;13.320;2023-05-10T11:26:26;28.00;50.00
16867;DHT22;8550;52.596;13.320;2023-05-10T11:31:31;28.70;48.00
16867;DHT22;8550;52.596;13.320;2023-05-10T11:36:35;30.20;46.90
16867;DHT22;8550;52.596;13.320;2023-05-10T11:41:39;30.60;44.50
16867;DHT22;8550;52.596;13.320;2023-05-10T11:46:42;30.70;41.90
16867;DHT22;8550;52.596;13.320;2023-05-10T11:51:44;30.00;43.20
16867;DHT22;8550;52.596;13.320;2023-05-10T11:56:47;30.40;41.50
16867;DHT22;8550;52.596;13.320;2023-05-10T12:01:51;30.90;40.70
16867;DHT22;8550;52.596;13.320;2023-05-10T12:06:53;31.20;40.70
16867;DHT22;8550;52.596;13.320;2023-05-10T12:11:57;31.80;40.20
16867;DHT22;8550;52.596;13.320;2023-05-10T12:16:59;31.60;39.80
16867;DHT22;8550;52.596;13.320;2023-05-10T12:22:04;32.30;39.40
16867;DHT22;8550;52.596;13.320;2023-05-10T12:27:09;32.80;37.40
16867;DHT22;8550;52.596;13.320;2023-05-10T12:32:12;32.30;38.20
16867;DHT22;8550;52.596;13.320;2023-05-10T12:37:14;32.90;35.90
16867;DHT22;8550;52.596;13.320;2023-05-10T12:42:18;33.00;36.80
16867;DHT22;8550;52.596;13.320;2023-05-10T12:47:20;33.60;35.20
16867;DHT22;8550;52.596;13.320;2023-05-10T12:52:22;34.00;35.60
16867;DHT22;8550;52.596;13.320;2023-05-10T12:57:26;32.50;35.90
16867;DHT22;8550;52.596;13.320;2023-05-10T13:02:29;32.70;35.30
16867;DHT22;8550;52.596;13.320;2023-05-10T13:07:33;32.20;36.80
16867;DHT22;8550;52.596;13.320;2023-05-10T13:12:36;32.90;35.80
16867;DHT22;8550;52.596;13.320;2023-05-10T13:17:38;32.60;37.00
16867;DHT22;8550;52.596;13.320;2023-05-10T13:22:41;33.00;36.20
16867;DHT22;8550;52.596;13.320;2023-05-10T13:27:44;32.30;35.50
16867;DHT22;8550;52.596;13.320;2023-05-10T13:32:46;33.70;35.40
16867;DHT22;8550;52.596;13.320;2023-05-10T13:37:48;33.90;33.80
16867;DHT22;8550;52.596;13.320;2023-05-10T13:42:52;34.40;33.50
16867;DHT22;8550;52.596;13.320;2023-05-10T13:47:54;34.00;33.00
16867;DHT22;8550;52.596;13.320;2023-05-10T13:52:56;33.40;33.70
16867;DHT22;8550;52.596;13.320;2023-05-10T13:57:59;32.90;34.80
16867;DHT22;8550;52.596;13.320;2023-05-10T14:03:01;34.10;35.00
16867;DHT22;8550;52.596;13.320;2023-05-10T14:08:05;35.00;33.60
16867;DHT22;8550;52.596;13.320;2023-05-10T14:13:09;35.70;31.40
16867;DHT22;8550;52.596;13.320;2023-05-10T14:18:11;34.70;31.90
16867;DHT22;8550;52.596;13.320;2023-05-10T14:23:13;33.70;32.60
16867;DHT22;8550;52.596;13.320;2023-05-10T14:28:16;33.70;33.50
16867;DHT22;8550;52.596;13.320;2023-05-10T14:33:19;33.80;31.50
16867;DHT22;8550;52.596;13.320;2023-05-10T14:38:22;34.20;32.00
16867;DHT22;8550;52.596;13.320;2023-05-10T14:43:26;33.90;31.40
16867;DHT22;8550;52.596;13.320;2023-05-10T14:48:28;31.90;33.70
16867;DHT22;8550;52.596;13.320;2023-05-10T14:53:30;30.80;35.30
16867;DHT22;8550;52.596;13.320;2023-05-10T14:58:34;29.30;35.00
16867;DHT22;8550;52.596;13.320;2023-05-10T15:03:36;28.40;35.80
16867;DHT22;8550;52.596;13.320;2023-05-10T15:08:39;27.10;37.40
16867;DHT22;8550;52.596;13.320;2023-05-10T15:13:42;26.60;39.90
16867;DHT22;8550;52.596;13.320;2023-05-10T15:18:47;26.50;40.20
16867;DHT22;8550;52.596;13.320;2023-05-10T15:23:49;25.90;41.60
16867;DHT22;8550;52.596;13.320;2023-05-10T15:28:54;25.30;43.40
16867;DHT22;8550;52.596;13.320;2023-05-10T15:33:57;24.90;43.50
16867;DHT22;8550;52.596;13.320;2023-05-10T15:38:59;24.60;43.20
16867;DHT22;8550;52.596;13.320;2023-05-10T15:44:03;24.40;44.10
16867;DHT22;8550;52.596;13.320;2023-05-10T15:49:05;24.20;45.30
16867;DHT22;8550;52.596;13.320;2023-05-10T15:54:08;23.90;47.20
16867;DHT22;8550;52.596;13.320;2023-05-10T15:59:12;23.80;45.90
16867;DHT22;8550;52.596;13.320;2023-05-10T16:04:14;23.60;46.50
16867;DHT22;8550;52.596;13.320;2023-05-10T16:09:16;23.50;47.80
16867;DHT22;8550;52.596;13.320;2023-05-10T16:14:19;23.50;47.20
16867;DHT22;8550;52.596;13.320;2023-05-10T16:19:24;23.30;47.90
16867;DHT22;8550;52.596;13.320;2023-05-10T16:24:26;23.30;48.70
16867;DHT22;8550;52.596;13.320;2023-05-10T16:29:29;23.40;49.10
16867;DHT22;8550;52.596;13.320;2023-05-10T16:34:31;23.30;49.00
16867;DHT22;8550;52.596;13.320;2023-05-10T16:39:33;22.80;61.20
16867;DHT22;8550;52.596;13.320;2023-05-10T16:44:36;22.20;67.30
16867;DHT22;8550;52.596;13.320;2023-05-10T16:49:38;22.10;71.70
16867;DHT22;8550;52.596;13.320;2023-05-10T16:54:41;21.80;76.40
16867;DHT22;8550;52.596;13.320;2023-05-10T16:59:50;21.50;79.90
16867;DHT22;8550;52.596;13.320;2023-05-10T17:04:53;21.80;82.10
16867;DHT22;8550;52.596;13.320;2023-05-10T17:09:55;21.50;84.10
16867;DHT22;8550;52.596;13.320;2023-05-10T17:15:00;21.30;86.30
16867;DHT22;8550;52.596;13.320;2023-05-10T17:20:02;21.00;90.00
16867;DHT22;8550;52.596;13.320;2023-05-10T17:25:05;20.40;93.00
16867;DHT22;8550;52.596;13.320;2023-05-10T17:30:10;20.30;95.00
16867;DHT22;8550;52.596;13.320;2023-05-10T17:35:12;20.10;96.80
16867;DHT22;8550;52.596;13.320;2023-05-10T17:40:14;19.90;97.80
16867;DHT22;8550;52.596;13.320;2023-05-10T17:45:17;19.80;99.10
16867;DHT22;8550;52.596;13.320;2023-05-10T17:50:20;19.70;99.90
16867;DHT22;8550;52.596;13.320;2023-05-10T17:55:21;19.50;99.90
16867;DHT22;8550;52.596;13.320;2023-05-10T18:00:25;19.40;99.90
16867;DHT22;8550;52.596;13.320;2023-05-10T18:05:27;19.20;99.90
16867;DHT22;8550;52.596;13.320;2023-05-10T18:10:29;19.00;99.90
16867;DHT22;8550;52.596;13.320;2023-05-10T18:15:34;18.70;99.90
16867;DHT22;8550;52.596;13.320;2023-05-10T18:20:36;18.70;99.90
16867;DHT22;8550;52.596;13.320;2023-05-10T18:25:38;18.50;99.90
16867;DHT22;8550;52.596;13.320;2023-05-10T18:30:41;18.50;99.90
16867;DHT22;8550;52.596;13.320;2023-05-10T18:35:43;18.50;99.90
16867;DHT22;8550;52.596;13.320;2023-05-10T18:40:45;18.40;99.90
16867;DHT22;8550;52.596;13.320;2023-05-10T18:45:48;18.10;99.90
16867;DHT22;8550;52.596;13.320;2023-05-10T18:50:50;18.00;99.90
16867;DHT22;8550;52.596;13.320;2023-05-10T18:55:55;17.90;99.90
16867;DHT22;8550;52.596;13.320;2023-05-10T19:00:59;17.90;99.90
16867;DHT22;8550;52.596;13.320;2023-05-10T19:06:01;17.80;99.90
16867;DHT22;8550;52.596;13.320;2023-05-10T19:11:03;17.50;99.90
16867;DHT22;8550;52.596;13.320;2023-05-10T19:16:10;17.20;99.90
16867;DHT22;8550;52.596;13.320;2023-05-10T19:21:12;17.30;99.90
16867;DHT22;8550;52.596;13.320;2023-05-10T19:26:14;17.10;99.90
16867;DHT22;8550;52.596;13.320;2023-05-10T19:31:17;17.00;99.90
16867;DHT22;8550;52.596;13.320;2023-05-10T19:36:19;16.80;99.90
16867;DHT22;8550;52.596;13.320;2023-05-10T19:41:21;16.50;99.90
16867;DHT22;8550;52.596;13.320;2023-05-10T19:46:25;16.30;99.90
16867;DHT22;8550;52.596;13.320;2023-05-10T19:51:27;16.20;99.90
16867;DHT22;8550;52.596;13.320;2023-05-10T19:56:29;15.90;99.90
16867;DHT22;8550;52.596;13.320;2023-05-10T20:01:32;15.80;99.90
16867;DHT22;8550;52.596;13.320;2023-05-10T20:06:34;15.70;99.90
16867;DHT22;8550;52.596;13.320;2023-05-10T20:11:37;15.60;99.90
16867;DHT22;8550;52.596;13.320;2023-05-10T20:16:40;15.50;99.90
16867;DHT22;8550;52.596;13.320;2023-05-10T20:21:42;15.20;99.90
16867;DHT22;8550;52.596;13.320;2023-05-10T20:26:44;15.20;99.90
16867;DHT22;8550;52.596;13.320;2023-05-10T20:31:47;15.20;99.90
16867;DHT22;8550;52.596;13.320;2023-05-10T20:36:50;15.00;99.90
16867;DHT22;8550;52.596;13.320;2023-05-10T20:41:52;14.80;99.90
16867;DHT22;8550;52.596;13.320;2023-05-10T20:46:56;14.70;99.90
16867;DHT22;8550;52.596;13.320;2023-05-10T20:51:58;14.80;99.90
16867;DHT22;8550;52.596;13.320;2023-05-10T20:57:00;14.60;99.90
16867;DHT22;8550;52.596;13.320;2023-05-10T21:02:04;14.50;99.90
16867;DHT22;8550;52.596;13.320;2023-05-10T21:07:06;14.50;99.90
16867;DHT22;8550;52.596;13.320;2023-05-10T21:12:08;14.40;99.90
16867;DHT22;8550;52.596;13.320;2023-05-10T21:17:11;14.40;99.90
16867;DHT22;8550;52.596;13.320;2023-05-10T21:22:13;14.30;99.90
16867;DHT22;8550;52.596;13.320;2023-05-10T21:27:16;14.20;99.90
16867;DHT22;8550;52.596;13.320;2023-05-10T21:32:19;14.20;99.90
16867;DHT22;8550;52.596;13.320;2023-05-10T21:37:21;13.90;99.90
16867;DHT22;8550;52.596;13.320;2023-05-10T21:42:23;13.90;99.90
16867;DHT22;8550;52.596;13.320;2023-05-10T21:47:26;13.90;99.90
16867;DHT22;8550;52.596;13.320;2023-05-10T21:52:28;13.90;99.90
16867;DHT22;8550;52.596;13.320;2023-05-10T21:57:31;13.80;99.90
16867;DHT22;8550;52.596;13.320;2023-05-10T22:02:34;13.80;99.90
16867;DHT22;8550;52.596;13.320;2023-05-10T22:07:36;13.80;99.90
16867;DHT22;8550;52.596;13.320;2023-05-10T22:12:38;13.70;99.90
16867;DHT22;8550;52.596;13.320;2023-05-10T22:17:41;13.80;99.90
16867;DHT22;8550;52.596;13.320;2023-05-10T22:22:43;13.80;99.90
16867;DHT22;8550;52.596;13.320;2023-05-10T22:27:45;14.00;99.90
16867;DHT22;8550;52.596;13.320;2023-05-10T22:32:49;14.00;99.90
16867;DHT22;8550;52.596;13.320;2023-05-10T22:37:51;14.00;99.90
16867;DHT22;8550;52.596;13.320;2023-05-10T22:42:53;14.00;99.90
16867;DHT22;8550;52.596;13.320;2023-05-10T22:47:56;14.10;99.90
16867;DHT22;8550;52.596;13.320;2023-05-10T22:52:58;14.10;99.90
16867;DHT22;8550;52.596;13.320;2023-05-10T22:58:00;14.10;99.90
16867;DHT22;8550;52.596;13.320;2023-05-10T23:03:04;14.00;99.90
16867;DHT22;8550;52.596;13.320;2023-05-10T23:08:06;13.90;99.90
16867;DHT22;8550;52.596;13.320;2023-05-10T23:13:08;13.70;99.90
16867;DHT22;8550;52.596;13.320;2023-05-10T23:18:12;13.80;99.90
16867;DHT22;8550;52.596;13.320;2023-05-10T23:23:13;13.70;99.90
16867;DHT22;8550;52.596;13.320;2023-05-10T23:28:16;13.60;99.90
16867;DHT22;8550;52.596;13.320;2023-05-10T23:33:19;13.40;99.90
16867;DHT22;8550;52.596;13.320;2023-05-10T23:38:22;13.50;99.90
16867;DHT22;8550;52.596;13.320;2023-05-10T23:43:23;13.30;99.90
16867;DHT22;8550;52.596;13.320;2023-05-10T23:48:27;13.20;99.90
16867;DHT22;8550;52.596;13.320;2023-05-10T23:53:29;13.10;99.90
16867;DHT22;8550;52.596;13.320;2023-05-10T23:58:31;13.00;99.90
